Time,TemperatureF,DewpointF,PressureIn,WindDirection,WindDirectionDegrees,WindSpeedMPH,WindSpeedGustMPH,Humidity,HourlyPrecipIn,Conditions,Clouds,dailyrainin,SoftwareType,DateUTC
2013-02-06 00:00:00,36.0,34.7,30.18,NE,38,3.0,3.0,95,0.00,,,0.01,meteohub,2013-02-06 08:00:00,
2013-02-06 00:05:00,35.2,34.0,30.18,NE,38,3.0,3.0,95,0.00,,,0.00,meteohub,2013-02-06 08:05:00,
2013-02-06 00:10:00,35.2,34.2,30.17,NE,38,3.0,3.0,96,0.00,,,0.00,meteohub,2013-02-06 08:10:00,
2013-02-06 00:15:00,34.7,33.4,30.18,NE,34,5.0,6.0,95,0.00,,,0.00,meteohub,2013-02-06 08:15:00,
2013-02-06 00:20:00,35.2,34.2,30.18,NNE,32,4.0,6.0,96,0.00,,,0.00,meteohub,2013-02-06 08:20:00,
2013-02-06 00:25:00,35.2,34.0,30.18,North,9,7.0,7.0,95,0.00,,,0.00,meteohub,2013-02-06 08:25:00,
2013-02-06 00:30:00,35.6,34.3,30.18,NNE,32,3.0,8.0,95,0.00,,,0.00,meteohub,2013-02-06 08:30:00,
2013-02-06 00:35:00,36.1,34.9,30.18,NE,42,4.0,8.0,95,0.00,,,0.00,meteohub,2013-02-06 08:35:00,
2013-02-06 00:40:00,37.0,35.8,30.18,NE,49,3.0,8.0,95,0.00,,,0.00,meteohub,2013-02-06 08:40:00,
2013-02-06 00:45:00,37.9,36.3,30.18,NE,44,4.0,7.0,94,0.00,,,0.00,meteohub,2013-02-06 08:45:00,
2013-02-06 00:50:00,39.0,36.9,30.18,NNE,28,2.0,7.0,92,0.00,,,0.00,meteohub,2013-02-06 08:50:00,
2013-02-06 00:55:00,39.4,36.5,30.18,NE,46,4.0,7.0,89,0.00,,,0.00,meteohub,2013-02-06 08:55:00,
2013-02-06 01:00:00,38.3,35.4,30.17,NE,46,2.0,5.0,89,0.00,,,0.00,meteohub,2013-02-06 09:00:00,
2013-02-06 01:05:00,37.2,34.3,30.17,NNE,26,4.0,5.0,89,0.00,,,0.00,meteohub,2013-02-06 09:05:00,
2013-02-06 01:10:00,37.6,35.2,30.17,NNE,29,7.0,7.0,91,0.00,,,0.00,meteohub,2013-02-06 09:10:00,
2013-02-06 01:15:00,38.1,35.2,30.17,NE,51,6.0,7.0,89,0.00,,,0.00,meteohub,2013-02-06 09:15:00,
2013-02-06 01:20:00,39.4,36.1,30.17,NNE,24,7.0,9.0,88,0.00,,,0.00,meteohub,2013-02-06 09:20:00,
2013-02-06 01:25:00,40.5,36.3,30.17,ENE,61,9.0,12.0,85,0.00,,,0.00,meteohub,2013-02-06 09:25:00,
2013-02-06 01:30:00,41.5,36.5,30.16,NE,36,13.0,14.0,82,0.00,,,0.00,meteohub,2013-02-06 09:30:00,
2013-02-06 01:35:00,41.7,36.3,30.16,NNE,22,9.0,14.0,81,0.00,,,0.00,meteohub,2013-02-06 09:35:00,
2013-02-06 01:40:00,42.1,36.3,30.16,NE,55,12.0,14.0,80,0.00,,,0.00,meteohub,2013-02-06 09:40:00,
2013-02-06 01:45:00,42.1,36.3,30.16,NE,34,10.0,13.0,80,0.00,,,0.00,meteohub,2013-02-06 09:45:00,
2013-02-06 01:50:00,41.9,36.1,30.17,NE,46,6.0,13.0,80,0.00,,,0.00,meteohub,2013-02-06 09:50:00,
2013-02-06 01:55:00,41.5,36.1,30.17,NE,53,7.0,13.0,81,0.00,,,0.00,meteohub,2013-02-06 09:55:00,
2013-02-06 02:00:00,41.4,36.3,30.16,NE,42,10.0,11.0,82,0.00,,,0.00,meteohub,2013-02-06 10:00:00,
2013-02-06 02:05:00,41.4,36.3,30.16,NNE,28,8.0,11.0,82,0.00,,,0.00,meteohub,2013-02-06 10:05:00,
2013-02-06 02:11:00,41.2,36.1,30.16,NE,34,8.0,12.0,82,0.00,,,0.00,meteohub,2013-02-06 10:11:00,
2013-02-06 02:16:00,41.2,36.5,30.16,NE,50,9.0,12.0,83,0.00,,,0.00,meteohub,2013-02-06 10:16:00,
2013-02-06 02:21:00,41.0,36.3,30.16,NE,46,9.0,12.0,83,0.00,,,0.00,meteohub,2013-02-06 10:21:00,
2013-02-06 02:26:00,41.0,36.3,30.16,NE,52,6.0,11.0,83,0.00,,,0.00,meteohub,2013-02-06 10:26:00,
2013-02-06 02:31:00,40.8,36.1,30.16,ENE,67,7.0,12.0,83,0.00,,,0.00,meteohub,2013-02-06 10:31:00,
2013-02-06 02:36:00,40.8,36.1,30.16,NE,34,6.0,12.0,83,0.00,,,0.00,meteohub,2013-02-06 10:36:00,
2013-02-06 02:41:00,40.8,36.1,30.16,NE,53,5.0,12.0,83,0.00,,,0.00,meteohub,2013-02-06 10:41:00,
2013-02-06 02:46:00,40.8,36.1,30.16,NE,42,4.0,10.0,83,0.00,,,0.00,meteohub,2013-02-06 10:46:00,
2013-02-06 02:51:00,40.8,35.8,30.16,ENE,62,8.0,9.0,82,0.00,,,0.00,meteohub,2013-02-06 10:51:00,
2013-02-06 02:56:00,40.8,35.8,30.16,NE,53,5.0,9.0,82,0.00,,,0.00,meteohub,2013-02-06 10:56:00,
2013-02-06 03:01:00,40.8,35.8,30.16,NE,39,6.0,9.0,82,0.00,,,0.00,meteohub,2013-02-06 11:01:00,
2013-02-06 03:06:00,40.6,35.6,30.16,ENE,63,5.0,8.0,82,0.00,,,0.00,meteohub,2013-02-06 11:06:00,
2013-02-06 03:11:00,40.6,35.6,30.16,NE,50,4.0,8.0,82,0.00,,,0.00,meteohub,2013-02-06 11:11:00,
2013-02-06 03:16:00,40.6,35.6,30.16,ENE,59,4.0,8.0,82,0.00,,,0.00,meteohub,2013-02-06 11:16:00,
2013-02-06 03:21:00,40.6,35.6,30.16,NE,43,6.0,8.0,82,0.00,,,0.00,meteohub,2013-02-06 11:21:00,
2013-02-06 03:26:00,40.5,35.1,30.16,NNE,28,3.0,8.0,81,0.00,,,0.00,meteohub,2013-02-06 11:26:00,
2013-02-06 03:31:00,39.9,34.9,30.16,ENE,73,5.0,8.0,82,0.00,,,0.00,meteohub,2013-02-06 11:31:00,
2013-02-06 03:36:00,40.5,34.7,30.16,NE,55,6.0,8.0,80,0.00,,,0.00,meteohub,2013-02-06 11:36:00,
2013-02-06 03:41:00,41.2,35.2,30.16,NE,55,5.0,9.0,79,0.00,,,0.00,meteohub,2013-02-06 11:41:00,
2013-02-06 03:46:00,41.2,34.9,30.16,ENE,61,7.0,9.0,78,0.00,,,0.00,meteohub,2013-02-06 11:46:00,
2013-02-06 03:51:00,41.5,34.9,30.16,NE,39,2.0,9.0,77,0.00,,,0.00,meteohub,2013-02-06 11:51:00,
2013-02-06 03:56:00,41.9,34.9,30.16,ENE,59,3.0,8.0,76,0.00,,,0.00,meteohub,2013-02-06 11:56:00,
2013-02-06 04:01:00,42.1,34.7,30.16,NNE,26,4.0,8.0,75,0.00,,,0.00,meteohub,2013-02-06 12:01:00,
2013-02-06 04:06:00,42.3,34.5,30.16,NNE,19,2.0,8.0,74,0.00,,,0.00,meteohub,2013-02-06 12:06:00,
2013-02-06 04:11:00,42.3,34.5,30.16,ENE,69,3.0,8.0,74,0.00,,,0.00,meteohub,2013-02-06 12:11:00,
2013-02-06 04:16:00,42.1,34.3,30.16,NE,41,2.0,7.0,74,0.00,,,0.00,meteohub,2013-02-06 12:16:00,
2013-02-06 04:21:00,41.7,34.3,30.16,NE,37,1.0,7.0,75,0.00,,,0.00,meteohub,2013-02-06 12:21:00,
2013-02-06 04:26:00,41.9,34.5,30.16,NE,35,2.0,7.0,75,0.00,,,0.00,meteohub,2013-02-06 12:26:00,
2013-02-06 04:31:00,41.9,34.5,30.16,NE,55,1.0,5.0,75,0.00,,,0.00,meteohub,2013-02-06 12:31:00,
2013-02-06 04:36:00,41.9,34.5,30.16,NE,46,1.0,5.0,75,0.00,,,0.00,meteohub,2013-02-06 12:36:00,
2013-02-06 04:41:00,41.7,34.3,30.16,NE,46,0.0,3.0,75,0.00,,,0.00,meteohub,2013-02-06 12:41:00,
2013-02-06 04:46:00,41.4,34.0,30.16,NE,46,1.0,3.0,75,0.00,,,0.00,meteohub,2013-02-06 12:46:00,
2013-02-06 04:51:00,41.2,34.2,30.16,NE,46,1.0,2.0,76,0.00,,,0.00,meteohub,2013-02-06 12:51:00,
2013-02-06 04:56:00,39.7,33.4,30.16,NE,46,0.0,2.0,78,0.00,,,0.00,meteohub,2013-02-06 12:56:00,
2013-02-06 05:01:00,38.5,33.1,30.17,NE,46,0.0,2.0,81,0.00,,,0.00,meteohub,2013-02-06 13:01:00,
2013-02-06 05:06:00,38.5,33.8,30.17,NE,46,0.0,2.0,83,0.00,,,0.00,meteohub,2013-02-06 13:06:00,
2013-02-06 05:11:00,39.6,34.2,30.17,NE,46,0.0,0.0,81,0.00,,,0.00,meteohub,2013-02-06 13:11:00,
2013-02-06 05:16:00,39.6,34.0,30.17,NE,46,0.0,2.0,80,0.00,,,0.00,meteohub,2013-02-06 13:16:00,
2013-02-06 05:21:00,37.9,32.9,30.17,NE,46,1.0,2.0,82,0.00,,,0.00,meteohub,2013-02-06 13:21:00,
2013-02-06 05:26:00,37.4,33.3,30.17,NE,46,0.0,2.0,85,0.00,,,0.00,meteohub,2013-02-06 13:26:00,
2013-02-06 05:31:00,36.9,33.1,30.17,NE,46,0.0,2.0,86,0.00,,,0.00,meteohub,2013-02-06 13:31:00,
2013-02-06 05:36:00,36.3,32.5,30.17,NE,46,0.0,2.0,86,0.00,,,0.00,meteohub,2013-02-06 13:36:00,
2013-02-06 05:41:00,36.0,32.7,30.17,NE,46,3.0,3.0,88,0.00,,,0.00,meteohub,2013-02-06 13:41:00,
2013-02-06 05:46:00,35.6,32.7,30.17,NE,46,2.0,3.0,89,0.00,,,0.00,meteohub,2013-02-06 13:46:00,
2013-02-06 05:51:00,35.8,32.9,30.17,NE,46,2.0,4.0,89,0.00,,,0.00,meteohub,2013-02-06 13:51:00,
2013-02-06 05:56:00,35.4,32.5,30.17,NE,46,2.0,4.0,89,0.00,,,0.00,meteohub,2013-02-06 13:56:00,
2013-02-06 06:01:00,35.1,32.4,30.17,NE,46,3.0,4.0,90,0.00,,,0.00,meteohub,2013-02-06 14:01:00,
2013-02-06 06:06:00,35.2,32.9,30.18,NE,46,3.0,4.0,91,0.00,,,0.00,meteohub,2013-02-06 14:06:00,
2013-02-06 06:11:00,35.2,32.9,30.18,NE,46,2.0,4.0,91,0.00,,,0.00,meteohub,2013-02-06 14:11:00,
2013-02-06 06:16:00,35.8,33.4,30.18,NE,54,2.0,5.0,91,0.00,,,0.00,meteohub,2013-02-06 14:16:00,
2013-02-06 06:21:00,36.1,33.3,30.18,NE,51,2.0,5.0,89,0.00,,,0.00,meteohub,2013-02-06 14:21:00,
2013-02-06 06:26:00,36.7,33.4,30.18,NE,51,3.0,5.0,88,0.00,,,0.00,meteohub,2013-02-06 14:26:00,
2013-02-06 06:31:00,36.0,32.5,30.18,NE,38,4.0,5.0,87,0.00,,,0.00,meteohub,2013-02-06 14:31:00,
2013-02-06 06:36:00,35.6,32.4,30.18,NE,42,4.0,5.0,88,0.00,,,0.00,meteohub,2013-02-06 14:36:00,
2013-02-06 06:41:00,36.7,33.8,30.18,NE,34,3.0,7.0,89,0.00,,,0.00,meteohub,2013-02-06 14:41:00,
2013-02-06 06:46:00,36.3,32.5,30.18,NNE,28,4.0,7.0,86,0.00,,,0.00,meteohub,2013-02-06 14:46:00,
2013-02-06 06:51:00,34.9,31.6,30.18,NE,35,4.0,7.0,88,0.00,,,0.00,meteohub,2013-02-06 14:51:00,
2013-02-06 06:56:00,34.5,31.6,30.18,NNE,26,5.0,7.0,89,0.00,,,0.00,meteohub,2013-02-06 14:56:00,
2013-02-06 07:01:00,35.1,32.7,30.19,NE,42,4.0,5.0,91,0.00,,,0.00,meteohub,2013-02-06 15:01:00,
2013-02-06 07:06:00,35.4,32.7,30.19,NNE,17,3.0,5.0,90,0.00,,,0.00,meteohub,2013-02-06 15:06:00,
2013-02-06 07:11:00,35.2,32.5,30.18,NNE,16,3.0,5.0,90,0.00,,,0.00,meteohub,2013-02-06 15:11:00,
2013-02-06 07:16:00,35.2,32.4,30.18,NE,44,4.0,6.0,89,0.00,,,0.00,meteohub,2013-02-06 15:16:00,
2013-02-06 07:21:00,35.4,32.5,30.18,ENE,59,4.0,6.0,89,0.00,,,0.00,meteohub,2013-02-06 15:21:00,
2013-02-06 07:26:00,35.2,32.4,30.18,NE,49,3.0,6.0,89,0.00,,,0.00,meteohub,2013-02-06 15:26:00,
2013-02-06 07:31:00,36.5,33.8,30.18,NE,55,3.0,5.0,90,0.00,,,0.00,meteohub,2013-02-06 15:31:00,
2013-02-06 07:36:00,37.4,33.8,30.18,NE,36,2.0,5.0,87,0.00,,,0.00,meteohub,2013-02-06 15:36:00,
2013-02-06 07:41:00,36.9,33.1,30.19,NNE,30,3.0,5.0,86,0.00,,,0.00,meteohub,2013-02-06 15:41:00,
2013-02-06 07:46:00,35.8,32.5,30.19,NNE,19,3.0,5.0,88,0.00,,,0.00,meteohub,2013-02-06 15:46:00,
2013-02-06 07:51:00,36.0,33.3,30.18,NNE,30,2.0,5.0,90,0.00,,,0.00,meteohub,2013-02-06 15:51:00,
2013-02-06 07:56:00,36.0,33.1,30.18,NE,40,3.0,5.0,89,0.00,,,0.00,meteohub,2013-02-06 15:56:00,
2013-02-06 08:01:00,36.3,33.6,30.18,ENE,64,3.0,5.0,90,0.00,,,0.00,meteohub,2013-02-06 16:01:00,
2013-02-06 08:06:00,36.5,33.6,30.19,NE,39,3.0,4.0,89,0.00,,,0.00,meteohub,2013-02-06 16:06:00,
2013-02-06 08:11:00,36.5,33.6,30.19,NNE,26,3.0,5.0,89,0.00,,,0.00,meteohub,2013-02-06 16:11:00,
2013-02-06 08:16:00,36.9,34.2,30.19,NE,44,2.0,5.0,90,0.00,,,0.00,meteohub,2013-02-06 16:16:00,
2013-02-06 08:21:00,37.6,34.9,30.19,NE,51,1.0,5.0,90,0.00,,,0.00,meteohub,2013-02-06 16:21:00,
2013-02-06 08:26:00,37.6,34.7,30.19,ENE,57,2.0,4.0,89,0.00,,,0.00,meteohub,2013-02-06 16:26:00,
2013-02-06 08:32:00,38.1,34.9,30.19,ENE,57,0.0,3.0,88,0.00,,,0.00,meteohub,2013-02-06 16:32:00,
2013-02-06 08:37:00,39.4,35.6,30.19,NNE,29,2.0,4.0,86,0.00,,,0.00,meteohub,2013-02-06 16:37:00,
2013-02-06 08:42:00,40.6,36.1,30.19,NE,50,1.0,4.0,84,0.00,,,0.00,meteohub,2013-02-06 16:42:00,
2013-02-06 08:47:00,40.5,35.8,30.19,NE,50,0.0,4.0,83,0.00,,,0.00,meteohub,2013-02-06 16:47:00,
2013-02-06 08:52:00,39.6,35.1,30.19,NE,50,0.0,4.0,84,0.00,,,0.00,meteohub,2013-02-06 16:52:00,
2013-02-06 08:57:00,41.0,37.2,30.19,NE,50,0.0,4.0,86,0.00,,,0.00,meteohub,2013-02-06 16:57:00,
2013-02-06 09:02:00,42.4,37.4,30.19,NE,50,0.0,2.0,82,0.00,,,0.00,meteohub,2013-02-06 17:02:00,
2013-02-06 09:07:00,43.0,37.6,30.19,NE,50,0.0,1.0,81,0.00,,,0.00,meteohub,2013-02-06 17:07:00,
2013-02-06 09:12:00,43.0,37.9,30.20,NE,50,0.0,1.0,82,0.00,,,0.00,meteohub,2013-02-06 17:12:00,
2013-02-06 09:17:00,43.3,37.9,30.20,NE,50,0.0,2.0,81,0.00,,,0.00,meteohub,2013-02-06 17:17:00,
2013-02-06 09:22:00,43.5,38.1,30.20,NE,50,0.0,2.0,81,0.00,,,0.00,meteohub,2013-02-06 17:22:00,
2013-02-06 09:27:00,44.1,38.3,30.21,NE,50,0.0,2.0,80,0.00,,,0.00,meteohub,2013-02-06 17:27:00,
2013-02-06 09:32:00,44.4,38.7,30.21,NE,50,0.0,1.0,80,0.00,,,0.00,meteohub,2013-02-06 17:32:00,
2013-02-06 09:37:00,44.6,39.2,30.21,NE,50,1.0,1.0,81,0.00,,,0.00,meteohub,2013-02-06 17:37:00,
2013-02-06 09:42:00,44.2,39.0,30.21,NE,50,2.0,2.0,82,0.00,,,0.00,meteohub,2013-02-06 17:42:00,
2013-02-06 09:47:00,43.9,38.5,30.21,NE,50,2.0,3.0,81,0.00,,,0.00,meteohub,2013-02-06 17:47:00,
2013-02-06 09:52:00,43.5,38.5,30.21,NE,50,1.0,3.0,82,0.00,,,0.00,meteohub,2013-02-06 17:52:00,
2013-02-06 09:57:00,43.7,38.5,30.21,NE,50,0.0,3.0,82,0.00,,,0.00,meteohub,2013-02-06 17:57:00,
2013-02-06 10:02:00,44.2,39.0,30.21,SE,144,1.0,3.0,82,0.00,,,0.00,meteohub,2013-02-06 18:02:00,
2013-02-06 10:07:00,46.0,39.9,30.21,South,188,2.0,3.0,79,0.00,,,0.00,meteohub,2013-02-06 18:07:00,
2013-02-06 10:12:00,46.6,40.1,30.21,South,178,4.0,4.0,78,0.00,,,0.00,meteohub,2013-02-06 18:12:00,
2013-02-06 10:17:00,46.9,40.1,30.21,SW,217,1.0,4.0,77,0.00,,,0.00,meteohub,2013-02-06 18:17:00,
2013-02-06 10:22:00,47.5,40.6,30.21,SW,217,2.0,4.0,77,0.00,,,0.00,meteohub,2013-02-06 18:22:00,
2013-02-06 10:27:00,47.8,40.3,30.21,SW,217,2.0,4.0,75,0.00,,,0.00,meteohub,2013-02-06 18:27:00,
2013-02-06 10:32:00,48.0,40.1,30.21,SSW,201,2.0,5.0,74,0.00,,,0.00,meteohub,2013-02-06 18:32:00,
2013-02-06 10:37:00,48.2,41.0,30.21,SW,214,2.0,6.0,76,0.00,,,0.00,meteohub,2013-02-06 18:37:00,
2013-02-06 10:42:00,47.8,40.6,30.21,SW,217,1.0,6.0,76,0.00,,,0.00,meteohub,2013-02-06 18:42:00,
2013-02-06 10:47:00,47.7,40.8,30.21,WSW,239,4.0,6.0,77,0.00,,,0.00,meteohub,2013-02-06 18:47:00,
2013-02-06 10:52:00,48.0,39.7,30.21,WSW,244,1.0,6.0,73,0.00,,,0.00,meteohub,2013-02-06 18:52:00,
2013-02-06 10:57:00,48.2,41.0,30.21,SW,229,2.0,6.0,76,0.00,,,0.00,meteohub,2013-02-06 18:57:00,
2013-02-06 11:02:00,48.7,41.2,30.21,SSE,159,3.0,6.0,75,0.00,,,0.00,meteohub,2013-02-06 19:02:00,
2013-02-06 11:07:00,48.9,40.6,30.21,SSW,196,4.0,6.0,73,0.00,,,0.00,meteohub,2013-02-06 19:07:00,
2013-02-06 11:12:00,48.6,40.3,30.21,WSW,257,1.0,7.0,73,0.00,,,0.00,meteohub,2013-02-06 19:12:00,
2013-02-06 11:17:00,48.9,41.4,30.21,West,266,3.0,7.0,75,0.00,,,0.00,meteohub,2013-02-06 19:17:00,
2013-02-06 11:22:00,49.3,41.0,30.21,SSE,167,3.0,7.0,73,0.00,,,0.00,meteohub,2013-02-06 19:22:00,
2013-02-06 11:27:00,49.8,40.8,30.20,West,265,3.0,9.0,71,0.00,,,0.00,meteohub,2013-02-06 19:27:00,
2013-02-06 11:32:00,49.5,40.5,30.20,WSW,257,4.0,9.0,71,0.00,,,0.00,meteohub,2013-02-06 19:32:00,
2013-02-06 11:37:00,49.6,41.4,30.20,West,274,5.0,9.0,73,0.00,,,0.00,meteohub,2013-02-06 19:37:00,
2013-02-06 11:42:00,49.8,40.1,30.20,WSW,247,4.0,8.0,69,0.00,,,0.00,meteohub,2013-02-06 19:42:00,
2013-02-06 11:47:00,49.8,40.8,30.19,West,281,3.0,8.0,71,0.00,,,0.00,meteohub,2013-02-06 19:47:00,
2013-02-06 11:52:00,50.4,41.4,30.19,WSW,255,7.0,8.0,71,0.00,,,0.00,meteohub,2013-02-06 19:52:00,
2013-02-06 11:57:00,49.8,40.8,30.19,WNW,292,5.0,9.0,71,0.00,,,0.00,meteohub,2013-02-06 19:57:00,
2013-02-06 12:02:00,50.0,40.6,30.19,WSW,241,3.0,9.0,70,0.00,,,0.00,meteohub,2013-02-06 20:02:00,
2013-02-06 12:07:00,49.8,40.8,30.19,WNW,284,7.0,9.0,71,0.00,,,0.00,meteohub,2013-02-06 20:07:00,
2013-02-06 12:12:00,50.0,40.3,30.18,WSW,248,6.0,10.0,69,0.00,,,0.00,meteohub,2013-02-06 20:12:00,
2013-02-06 12:17:00,50.5,41.2,30.18,West,266,3.0,10.0,70,0.00,,,0.00,meteohub,2013-02-06 20:17:00,
2013-02-06 12:22:00,50.7,41.4,30.18,West,279,4.0,10.0,70,0.00,,,0.00,meteohub,2013-02-06 20:22:00,
2013-02-06 12:27:00,50.4,40.3,30.17,SSW,213,4.0,9.0,68,0.00,,,0.00,meteohub,2013-02-06 20:27:00,
2013-02-06 12:32:00,50.4,40.6,30.17,South,178,6.0,9.0,69,0.00,,,0.00,meteohub,2013-02-06 20:32:00,
2013-02-06 12:37:00,50.7,39.4,30.17,West,259,4.0,10.0,65,0.00,,,0.00,meteohub,2013-02-06 20:37:00,
2013-02-06 12:42:00,51.1,40.5,30.17,SW,226,3.0,10.0,67,0.00,,,0.00,meteohub,2013-02-06 20:42:00,
2013-02-06 12:47:00,51.6,39.9,30.17,West,269,6.0,10.0,64,0.00,,,0.00,meteohub,2013-02-06 20:47:00,
2013-02-06 12:52:00,52.0,41.4,30.17,WSW,257,3.0,10.0,67,0.00,,,0.00,meteohub,2013-02-06 20:52:00,
2013-02-06 12:57:00,51.4,40.5,30.16,West,279,3.0,10.0,66,0.00,,,0.00,meteohub,2013-02-06 20:57:00,
2013-02-06 13:02:00,51.6,40.6,30.16,SSW,213,2.0,10.0,66,0.00,,,0.00,meteohub,2013-02-06 21:02:00,
2013-02-06 13:07:00,51.6,40.6,30.16,South,176,3.0,9.0,66,0.00,,,0.00,meteohub,2013-02-06 21:07:00,
2013-02-06 13:12:00,52.0,40.6,30.16,SSE,149,4.0,8.0,65,0.00,,,0.00,meteohub,2013-02-06 21:12:00,
2013-02-06 13:17:00,52.2,40.8,30.16,WSW,250,4.0,10.0,65,0.00,,,0.00,meteohub,2013-02-06 21:17:00,
2013-02-06 13:23:00,52.3,40.1,30.15,SW,220,4.0,11.0,63,0.00,,,0.00,meteohub,2013-02-06 21:23:00,
2013-02-06 13:28:00,52.0,39.7,30.15,SSW,208,3.0,11.0,63,0.00,,,0.00,meteohub,2013-02-06 21:28:00,
2013-02-06 13:33:00,52.3,40.5,30.15,WSW,246,5.0,11.0,64,0.00,,,0.00,meteohub,2013-02-06 21:33:00,
2013-02-06 13:38:00,52.2,39.9,30.15,South,179,4.0,9.0,63,0.00,,,0.00,meteohub,2013-02-06 21:38:00,
2013-02-06 13:43:00,52.2,39.6,30.15,WSW,255,8.0,9.0,62,0.00,,,0.00,meteohub,2013-02-06 21:43:00,
2013-02-06 13:48:00,52.3,39.7,30.15,SW,234,4.0,10.0,62,0.00,,,0.00,meteohub,2013-02-06 21:48:00,
2013-02-06 13:53:00,52.3,40.1,30.14,SSW,194,5.0,11.0,63,0.00,,,0.00,meteohub,2013-02-06 21:53:00,
2013-02-06 13:58:00,52.9,39.7,30.14,SSW,202,8.0,11.0,61,0.00,,,0.00,meteohub,2013-02-06 21:58:00,
2013-02-06 14:03:00,52.2,38.7,30.14,WSW,252,4.0,12.0,60,0.00,,,0.00,meteohub,2013-02-06 22:03:00,
2013-02-06 14:08:00,52.9,40.3,30.14,SSW,201,2.0,12.0,62,0.00,,,0.00,meteohub,2013-02-06 22:08:00,
2013-02-06 14:13:00,52.5,41.2,30.14,South,191,2.0,12.0,65,0.00,,,0.00,meteohub,2013-02-06 22:13:00,
2013-02-06 14:18:00,52.5,40.6,30.14,SSW,199,2.0,9.0,64,0.00,,,0.00,meteohub,2013-02-06 22:18:00,
2013-02-06 14:23:00,52.5,40.6,30.14,SW,219,4.0,9.0,64,0.00,,,0.00,meteohub,2013-02-06 22:23:00,
2013-02-06 14:28:00,52.9,41.4,30.14,SSE,161,2.0,9.0,65,0.00,,,0.00,meteohub,2013-02-06 22:28:00,
2013-02-06 14:33:00,53.4,41.2,30.14,WSW,254,5.0,8.0,63,0.00,,,0.00,meteohub,2013-02-06 22:33:00,
2013-02-06 14:38:00,53.2,39.2,30.14,West,265,7.0,12.0,59,0.00,,,0.00,meteohub,2013-02-06 22:38:00,
2013-02-06 14:43:00,53.4,39.9,30.13,WNW,284,7.0,12.0,60,0.00,,,0.00,meteohub,2013-02-06 22:43:00,
2013-02-06 14:48:00,53.1,38.3,30.14,West,268,4.0,12.0,57,0.00,,,0.00,meteohub,2013-02-06 22:48:00,
2013-02-06 14:53:00,53.4,38.5,30.14,WSW,245,5.0,12.0,57,0.00,,,0.00,meteohub,2013-02-06 22:53:00,
2013-02-06 14:58:00,53.1,37.8,30.14,WNW,286,5.0,12.0,56,0.00,,,0.00,meteohub,2013-02-06 22:58:00,
2013-02-06 15:03:00,52.9,38.1,30.14,SW,229,5.0,12.0,57,0.00,,,0.00,meteohub,2013-02-06 23:03:00,
2013-02-06 15:08:00,52.5,36.9,30.14,SW,216,7.0,12.0,55,0.00,,,0.00,meteohub,2013-02-06 23:08:00,
2013-02-06 15:13:00,53.1,37.4,30.14,West,265,7.0,10.0,55,0.00,,,0.00,meteohub,2013-02-06 23:13:00,
2013-02-06 15:18:00,52.9,37.6,30.14,WSW,256,0.0,10.0,56,0.00,,,0.00,meteohub,2013-02-06 23:18:00,
2013-02-06 15:23:00,52.7,36.0,30.14,West,265,4.0,9.0,53,0.00,,,0.00,meteohub,2013-02-06 23:23:00,
2013-02-06 15:28:00,52.7,36.5,30.14,SW,217,7.0,10.0,54,0.00,,,0.00,meteohub,2013-02-06 23:28:00,
2013-02-06 15:33:00,52.7,37.4,30.14,West,267,3.0,10.0,56,0.00,,,0.00,meteohub,2013-02-06 23:33:00,
2013-02-06 15:38:00,52.5,36.9,30.14,SW,227,3.0,10.0,55,0.00,,,0.00,meteohub,2013-02-06 23:38:00,
2013-02-06 15:43:00,52.5,36.3,30.14,WSW,241,4.0,10.0,54,0.00,,,0.00,meteohub,2013-02-06 23:43:00,
2013-02-06 15:48:00,52.5,37.2,30.14,SW,218,4.0,9.0,56,0.00,,,0.00,meteohub,2013-02-06 23:48:00,
2013-02-06 15:53:00,52.3,36.7,30.14,SSW,207,3.0,9.0,55,0.00,,,0.00,meteohub,2013-02-06 23:53:00,
2013-02-06 15:58:00,52.0,37.6,30.14,West,277,5.0,9.0,58,0.00,,,0.00,meteohub,2013-02-06 23:58:00,
2013-02-06 16:03:00,52.3,37.6,30.14,SSW,213,6.0,8.0,57,0.00,,,0.00,meteohub,2013-02-07 00:03:00,
2013-02-06 16:08:00,52.2,38.7,30.13,SSW,209,4.0,8.0,60,0.00,,,0.00,meteohub,2013-02-07 00:08:00,
2013-02-06 16:13:00,52.0,38.5,30.13,SW,224,6.0,8.0,60,0.00,,,0.00,meteohub,2013-02-07 00:13:00,
2013-02-06 16:18:00,52.0,38.5,30.13,SSW,213,5.0,11.0,60,0.00,,,0.00,meteohub,2013-02-07 00:18:00,
2013-02-06 16:23:00,51.8,38.8,30.13,WSW,239,6.0,11.0,61,0.00,,,0.00,meteohub,2013-02-07 00:23:00,
2013-02-06 16:28:00,51.6,39.0,30.13,SSW,194,3.0,11.0,62,0.00,,,0.00,meteohub,2013-02-07 00:28:00,
2013-02-06 16:33:00,51.6,38.7,30.13,SSW,204,3.0,10.0,61,0.00,,,0.00,meteohub,2013-02-07 00:33:00,
2013-02-06 16:38:00,51.4,38.8,30.13,SW,219,5.0,10.0,62,0.00,,,0.00,meteohub,2013-02-07 00:38:00,
2013-02-06 16:43:00,51.3,38.7,30.13,SW,215,3.0,7.0,62,0.00,,,0.00,meteohub,2013-02-07 00:43:00,
2013-02-06 16:48:00,51.1,38.8,30.13,WSW,238,5.0,7.0,63,0.00,,,0.00,meteohub,2013-02-07 00:48:00,
2013-02-06 16:53:00,51.1,40.1,30.13,SW,221,2.0,7.0,66,0.00,,,0.00,meteohub,2013-02-07 00:53:00,
2013-02-06 16:58:00,50.5,39.6,30.13,WSW,254,5.0,8.0,66,0.00,,,0.00,meteohub,2013-02-07 00:58:00,
2013-02-06 17:03:00,50.4,40.3,30.13,WSW,254,3.0,8.0,68,0.00,,,0.00,meteohub,2013-02-07 01:03:00,
2013-02-06 17:08:00,50.0,40.6,30.13,WSW,242,1.0,8.0,70,0.00,,,0.00,meteohub,2013-02-07 01:08:00,
2013-02-06 17:13:00,49.5,41.2,30.13,SW,222,3.0,7.0,73,0.00,,,0.00,meteohub,2013-02-07 01:13:00,
2013-02-06 17:18:00,49.3,41.4,30.13,SW,217,2.0,7.0,74,0.00,,,0.00,meteohub,2013-02-07 01:18:00,
2013-02-06 17:23:00,48.9,41.4,30.13,South,180,4.0,7.0,75,0.00,,,0.00,meteohub,2013-02-07 01:23:00,
2013-02-06 17:28:00,48.4,41.5,30.13,SW,228,2.0,7.0,77,0.00,,,0.00,meteohub,2013-02-07 01:28:00,
2013-02-06 17:34:00,48.0,41.5,30.13,SW,220,3.0,7.0,78,0.00,,,0.00,meteohub,2013-02-07 01:34:00,
2013-02-06 17:39:00,47.7,41.2,30.13,SW,236,5.0,7.0,78,0.00,,,0.00,meteohub,2013-02-07 01:39:00,
2013-02-06 17:44:00,47.3,41.2,30.13,SW,221,3.0,8.0,79,0.00,,,0.00,meteohub,2013-02-07 01:44:00,
2013-02-06 17:49:00,46.9,41.2,30.13,SW,217,2.0,8.0,80,0.00,,,0.00,meteohub,2013-02-07 01:49:00,
2013-02-06 17:54:00,46.0,40.5,30.13,SW,215,2.0,8.0,81,0.00,,,0.00,meteohub,2013-02-07 01:54:00,
2013-02-06 17:59:00,45.5,40.3,30.13,SW,214,3.0,6.0,82,0.00,,,0.00,meteohub,2013-02-07 01:59:00,
2013-02-06 18:04:00,45.1,40.6,30.13,SW,217,3.0,4.0,84,0.00,,,0.00,meteohub,2013-02-07 02:04:00,
2013-02-06 18:09:00,45.0,40.5,30.13,SSW,213,3.0,4.0,84,0.00,,,0.00,meteohub,2013-02-07 02:09:00,
2013-02-06 18:14:00,44.8,40.5,30.14,SSW,211,3.0,4.0,85,0.00,,,0.00,meteohub,2013-02-07 02:14:00,
2013-02-06 18:19:00,44.8,40.5,30.14,SSW,211,2.0,4.0,85,0.00,,,0.00,meteohub,2013-02-07 02:19:00,
2013-02-06 18:24:00,44.6,40.6,30.14,SSW,211,3.0,4.0,86,0.00,,,0.00,meteohub,2013-02-07 02:24:00,
2013-02-06 18:29:00,44.8,40.5,30.14,SSW,196,2.0,4.0,85,0.00,,,0.00,meteohub,2013-02-07 02:29:00,
2013-02-06 18:34:00,45.0,41.0,30.14,SSW,196,2.0,3.0,86,0.00,,,0.00,meteohub,2013-02-07 02:34:00,
2013-02-06 18:39:00,45.1,40.8,30.14,SSW,195,1.0,4.0,85,0.00,,,0.00,meteohub,2013-02-07 02:39:00,
2013-02-06 18:44:00,45.0,40.5,30.14,South,169,3.0,4.0,84,0.00,,,0.00,meteohub,2013-02-07 02:44:00,
2013-02-06 18:49:00,45.0,40.5,30.14,South,180,3.0,5.0,84,0.00,,,0.00,meteohub,2013-02-07 02:49:00,
2013-02-06 18:54:00,44.4,40.3,30.14,SSW,207,2.0,5.0,85,0.00,,,0.00,meteohub,2013-02-07 02:54:00,
2013-02-06 18:59:00,44.1,40.1,30.14,SSW,207,2.0,5.0,86,0.00,,,0.00,meteohub,2013-02-07 02:59:00,
2013-02-06 19:04:00,43.5,39.9,30.14,SSW,207,2.0,5.0,87,0.00,,,0.00,meteohub,2013-02-07 03:04:00,
2013-02-06 19:09:00,43.0,39.7,30.14,SSW,207,2.0,5.0,88,0.00,,,0.00,meteohub,2013-02-07 03:09:00,
2013-02-06 19:14:00,43.0,39.9,30.14,SSW,207,2.0,4.0,89,0.00,,,0.00,meteohub,2013-02-07 03:14:00,
2013-02-06 19:19:00,43.3,40.3,30.14,SSW,206,2.0,4.0,89,0.00,,,0.00,meteohub,2013-02-07 03:19:00,
2013-02-06 19:24:00,43.9,40.8,30.14,SW,216,2.0,4.0,89,0.00,,,0.00,meteohub,2013-02-07 03:24:00,
2013-02-06 19:29:00,43.9,40.6,30.15,SW,215,3.0,4.0,88,0.00,,,0.00,meteohub,2013-02-07 03:29:00,
2013-02-06 19:34:00,43.9,40.6,30.15,SSW,207,4.0,5.0,88,0.00,,,0.00,meteohub,2013-02-07 03:34:00,
2013-02-06 19:39:00,43.9,40.6,30.15,SSW,211,3.0,6.0,88,0.00,,,0.00,meteohub,2013-02-07 03:39:00,
2013-02-06 19:44:00,43.5,40.5,30.15,SSW,204,3.0,6.0,89,0.00,,,0.00,meteohub,2013-02-07 03:44:00,
2013-02-06 19:49:00,43.3,40.3,30.15,SSW,210,2.0,6.0,89,0.00,,,0.00,meteohub,2013-02-07 03:49:00,
2013-02-06 19:54:00,43.2,40.1,30.15,SW,219,2.0,6.0,89,0.00,,,0.00,meteohub,2013-02-07 03:54:00,
2013-02-06 19:59:00,43.0,40.3,30.15,SW,217,4.0,6.0,90,0.00,,,0.00,meteohub,2013-02-07 03:59:00,
2013-02-06 20:04:00,43.0,40.3,30.16,WSW,240,7.0,7.0,90,0.00,,,0.00,meteohub,2013-02-07 04:04:00,
2013-02-06 20:09:00,43.2,40.1,30.15,SSW,192,7.0,10.0,89,0.00,,,0.00,meteohub,2013-02-07 04:09:00,
2013-02-06 20:14:00,43.0,39.9,30.15,South,179,5.0,10.0,89,0.00,,,0.00,meteohub,2013-02-07 04:14:00,
2013-02-06 20:19:00,42.6,39.6,30.15,SW,219,2.0,10.0,89,0.00,,,0.00,meteohub,2013-02-07 04:19:00,
2013-02-06 20:24:00,42.4,39.4,30.15,SW,228,4.0,8.0,89,0.00,,,0.00,meteohub,2013-02-07 04:24:00,
2013-02-06 20:29:00,42.4,39.4,30.15,WSW,252,6.0,8.0,89,0.00,,,0.00,meteohub,2013-02-07 04:29:00,
2013-02-06 20:34:00,42.3,39.2,30.15,SW,217,3.0,9.0,89,0.00,,,0.00,meteohub,2013-02-07 04:34:00,
2013-02-06 20:39:00,42.3,39.2,30.15,SSW,207,6.0,9.0,89,0.00,,,0.00,meteohub,2013-02-07 04:39:00,
2013-02-06 20:44:00,42.1,39.0,30.16,SSW,207,2.0,9.0,89,0.00,,,0.00,meteohub,2013-02-07 04:44:00,
2013-02-06 20:49:00,41.7,38.7,30.16,SSW,207,4.0,9.0,89,0.00,,,0.00,meteohub,2013-02-07 04:49:00,
2013-02-06 20:54:00,41.7,38.7,30.16,SSW,211,2.0,9.0,89,0.00,,,0.00,meteohub,2013-02-07 04:54:00,
2013-02-06 20:59:00,41.4,38.1,30.16,WSW,240,6.0,8.0,88,0.00,,,0.00,meteohub,2013-02-07 04:59:00,
2013-02-06 21:00:00,41.4,38.1,30.16,SW,221,4.0,8.0,88,0.00,,,0.00,meteohub,2013-02-07 05:00:00,
2013-02-06 21:01:00,41.4,38.3,30.16,SW,227,5.0,7.0,89,0.00,,,0.00,meteohub,2013-02-07 05:01:00,
2013-02-06 21:02:00,41.4,38.3,30.16,WSW,238,3.0,7.0,89,0.00,,,0.00,meteohub,2013-02-07 05:02:00,
2013-02-06 21:07:00,41.0,37.9,30.16,SSW,210,2.0,7.0,89,0.00,,,0.00,meteohub,2013-02-07 05:07:00,
2013-02-06 21:12:00,40.8,37.8,30.15,SSW,192,4.0,7.0,89,0.00,,,0.00,meteohub,2013-02-07 05:12:00,
2013-02-06 21:17:00,40.8,37.8,30.16,South,181,3.0,7.0,89,0.00,,,0.00,meteohub,2013-02-07 05:17:00,
2013-02-06 21:22:00,40.8,37.8,30.16,SSW,205,2.0,7.0,89,0.00,,,0.00,meteohub,2013-02-07 05:22:00,
2013-02-06 21:27:00,40.6,37.4,30.16,SW,232,3.0,7.0,88,0.00,,,0.00,meteohub,2013-02-07 05:27:00,
2013-02-06 21:32:00,40.6,37.4,30.16,WSW,252,1.0,8.0,88,0.00,,,0.00,meteohub,2013-02-07 05:32:00,
2013-02-06 21:37:00,40.5,36.9,30.16,WSW,250,3.0,8.0,87,0.00,,,0.00,meteohub,2013-02-07 05:37:00,
2013-02-06 21:42:00,40.3,36.7,30.16,West,267,5.0,8.0,87,0.00,,,0.00,meteohub,2013-02-07 05:42:00,
2013-02-06 21:48:00,40.3,37.0,30.16,WSW,237,6.0,8.0,88,0.00,,,0.00,meteohub,2013-02-07 05:48:00,
2013-02-06 21:53:00,40.3,36.7,30.16,SW,234,2.0,8.0,87,0.00,,,0.00,meteohub,2013-02-07 05:53:00,
2013-02-06 21:58:00,40.3,36.7,30.16,WSW,240,1.0,8.0,87,0.00,,,0.00,meteohub,2013-02-07 05:58:00,
2013-02-06 22:03:00,40.1,36.5,30.16,WNW,287,3.0,8.0,87,0.00,,,0.00,meteohub,2013-02-07 06:03:00,
2013-02-06 22:08:00,39.9,36.3,30.16,West,271,5.0,6.0,87,0.00,,,0.00,meteohub,2013-02-07 06:08:00,
2013-02-06 22:13:00,40.1,36.5,30.16,West,275,5.0,8.0,87,0.00,,,0.00,meteohub,2013-02-07 06:13:00,
2013-02-06 22:18:00,39.9,36.3,30.16,WSW,253,0.0,8.0,87,0.00,,,0.00,meteohub,2013-02-07 06:18:00,
2013-02-06 22:23:00,39.9,36.3,30.16,WNW,286,2.0,8.0,87,0.00,,,0.00,meteohub,2013-02-07 06:23:00,
2013-02-06 22:28:00,39.7,36.0,30.16,West,265,2.0,8.0,86,0.00,,,0.00,meteohub,2013-02-07 06:28:00,
2013-02-06 22:33:00,39.7,36.1,30.17,SSW,200,3.0,6.0,87,0.00,,,0.00,meteohub,2013-02-07 06:33:00,
2013-02-06 22:38:00,39.7,36.1,30.17,WSW,246,3.0,5.0,87,0.00,,,0.00,meteohub,2013-02-07 06:38:00,
2013-02-06 22:43:00,39.7,36.0,30.16,WSW,248,0.0,8.0,86,0.00,,,0.00,meteohub,2013-02-07 06:43:00,
2013-02-06 22:48:00,39.6,36.0,30.16,WSW,250,0.0,8.0,87,0.00,,,0.00,meteohub,2013-02-07 06:48:00,
2013-02-06 22:53:00,39.6,35.8,30.17,WSW,251,2.0,8.0,86,0.00,,,0.00,meteohub,2013-02-07 06:53:00,
2013-02-06 22:58:00,39.6,35.8,30.16,West,266,1.0,7.0,86,0.00,,,0.00,meteohub,2013-02-07 06:58:00,
2013-02-06 23:03:00,39.4,35.6,30.16,SW,235,0.0,7.0,86,0.00,,,0.00,meteohub,2013-02-07 07:03:00,
2013-02-06 23:08:00,39.4,35.8,30.16,West,271,1.0,7.0,87,0.00,,,0.00,meteohub,2013-02-07 07:08:00,
2013-02-06 23:13:00,39.0,35.4,30.16,SW,228,5.0,5.0,87,0.00,,,0.00,meteohub,2013-02-07 07:13:00,
2013-02-06 23:18:00,39.0,35.4,30.16,SW,214,3.0,5.0,87,0.00,,,0.00,meteohub,2013-02-07 07:18:00,
2013-02-06 23:23:00,39.0,35.4,30.17,SSW,201,2.0,5.0,87,0.00,,,0.00,meteohub,2013-02-07 07:23:00,
2013-02-06 23:28:00,39.2,35.6,30.16,South,180,0.0,5.0,87,0.00,,,0.00,meteohub,2013-02-07 07:28:00,
2013-02-06 23:33:00,39.0,35.4,30.17,SSW,211,3.0,5.0,87,0.00,,,0.00,meteohub,2013-02-07 07:33:00,
2013-02-06 23:38:00,39.0,35.4,30.17,SSW,213,3.0,5.0,87,0.00,,,0.00,meteohub,2013-02-07 07:38:00,
2013-02-06 23:43:00,39.2,35.6,30.17,WSW,237,2.0,6.0,87,0.00,,,0.00,meteohub,2013-02-07 07:43:00,
2013-02-06 23:48:00,39.0,35.4,30.17,WSW,240,1.0,6.0,87,0.00,,,0.00,meteohub,2013-02-07 07:48:00,
2013-02-06 23:53:00,38.8,35.2,30.17,SW,230,2.0,6.0,87,0.00,,,0.00,meteohub,2013-02-07 07:53:00,
2013-02-06 23:58:00,38.8,35.2,30.17,SW,217,4.0,6.0,87,0.00,,,0.00,meteohub,2013-02-07 07:58:00,